Nearby METAR Reports


RPLC - Angeles/Pampanga, Philippines
Distance from station: S 166km
Updated: Fri, 20-Jul-2018 4:00pm +08
Heavy thunderstorm, Rain, Overcast
Heavy thunderstorm, Rain, Overcast
 Wind from NE
Wind: NE 11 km/h
Temperature: 26°C
Dew Point: 25°C
Humidity: 94%
Barometer: 1005 hPa
Summary: Heavy thunderstorm, Rain
Clouds: Overcast
Visibility: 5 km
Cloud details: Few Clouds 457 m
Partly cloudy 549 m
Overcast 2743 m
2018/07/20 08:00 RPLC 200800Z 05006KT 5000 +TSRA FEW015CB SCT018 OVC090 26/25 Q1005 RMK A2968 CB OHD
RPLI - Laoag Intl Airport, Philippines
Distance from station: N 171km
Updated: Fri, 20-Jul-2018 4:00pm +08
Mostly cloudy
Mostly cloudy
 Wind from SW
Wind: SW 11 km/h
Temperature: 29°C
Heat Index: 34°C
Dew Point: 25°C
Humidity: 79%
Barometer: 1003 hPa
Clouds: Mostly cloudy
Visibility: 10 km
Cloud details: Few Clouds 549 m
Partly cloudy 579 m
Mostly cloudy 3048 m
2018/07/20 08:00 RPLI 200800Z 22006KT 9999 FEW018CB SCT019 BKN100 29/25 Q1003 NOSIG RMK A2962 CB SE AND SW-W
 
RPLB - Olongapo/Subic, Philippines
Distance from station: S 205km
Updated: Fri, 20-Jul-2018 4:00pm +08
Light rain, Overcast
Light rain, Overcast
 Wind from SW
Wind: SW 24 km/h
Temperature: 28°C
Heat Index: 34°C
Dew Point: 27°C
Humidity: 94%
Barometer: 1005 hPa
Summary: Light rain
Clouds: Overcast
Visibility: 8 km
Cloud details: Mostly cloudy 549 m
Overcast 2438 m
2018/07/20 08:00 RPLB 200800Z 23013KT 8000 -RA BKN018 OVC080 28/27 Q1005 RMK A2968
RPLL - Ninoy Aquino Intl Airport, Philippines
Distance from station: SSE 247km
Updated: Fri, 20-Jul-2018 4:00pm +08
Overcast
Overcast
 Wind from W
Wind: W 33 km/h, Gust: 54 km/h
Temperature: 26°C
Dew Point: 26°C
Humidity: 100%
Barometer: 1005 hPa
Clouds: Overcast
Visibility: 4 km
Cloud details: Few Clouds 549 m
Partly cloudy 610 m
Overcast 2438 m
2018/07/20 08:00 RPLL 200800Z 26018G29KT 4000 FEW018CB SCT020 OVC080 26/26 Q1005 NOSIG RMK A2968 CB OHD